Time;durP1;ratioP1;P1;durP2;ratioP2;P2;SDS_P1;SDS_P2;PMS_P1;PMS_P2;Temp;Humidity;BMP_temperature;BMP_pressure;BME280_temperature;BME280_humidity;BME280_pressure;Samples;Min_cycle;Max_cycle;Signal;HPM_P1;HPM_P2
2022/07/23 00:00:21;;;;;;;7.35;4.78;;;;;;;29.52;35.31;99465.34;4457784;32;33528;-61
2022/07/23 00:02:49;;;;;;;11.57;5.37;;;;;;;29.33;35.56;99462.78;4463976;32;35316;-60
2022/07/23 00:05:17;;;;;;;8.65;5.03;;;;;;;29.20;35.44;99460.28;4460480;32;34028;-61
2022/07/23 00:07:44;;;;;;;7.60;4.80;;;;;;;29.26;34.84;99456.56;4465620;32;33353;-60
2022/07/23 00:10:12;;;;;;;7.82;4.75;;;;;;;29.29;34.51;99452.50;4464550;32;33936;-60
2022/07/23 00:12:40;;;;;;;6.70;4.60;;;;;;;29.23;34.39;99457.06;4467085;32;33725;-61
2022/07/23 00:15:18;;;;;;;8.55;4.57;;;;;;;29.12;34.82;99460.69;4462633;32;34612;-62
2022/07/23 00:17:46;;;;;;;7.32;4.82;;;;;;;29.07;35.23;99457.81;4463494;32;34248;-61
2022/07/23 00:20:14;;;;;;;7.37;4.93;;;;;;;29.05;35.31;99455.28;4458431;32;35469;-60
2022/07/23 00:22:53;;;;;;;7.68;4.85;;;;;;;28.99;35.60;99451.56;4455629;32;32536;-60
2022/07/23 00:25:21;;;;;;;10.23;5.32;;;;;;;29.01;35.57;99460.44;4455964;32;34561;-60
2022/07/23 00:27:57;;;;;;;8.20;4.62;;;;;;;29.13;35.51;99456.84;4466254;32;33578;-60
2022/07/23 00:30:25;;;;;;;9.15;4.95;;;;;;;29.18;35.28;99454.19;4462370;32;32632;-60
2022/07/23 00:32:56;;;;;;;10.65;5.12;;;;;;;29.24;35.05;99459.56;4462553;32;35172;-60
2022/07/23 00:35:26;;;;;;;7.90;4.90;;;;;;;29.34;34.81;99447.94;4461576;32;33987;-60
2022/07/23 00:37:55;;;;;;;9.18;4.80;;;;;;;29.37;34.71;99452.94;4464153;32;33304;-60
2022/07/23 00:40:23;;;;;;;11.10;5.00;;;;;;;29.35;34.69;99455.09;4463734;32;34928;-60
2022/07/23 00:42:51;;;;;;;8.07;5.20;;;;;;;29.47;34.35;99455.03;4463815;32;32671;-61
2022/07/23 00:45:18;;;;;;;9.10;5.07;;;;;;;29.46;34.23;99461.66;4449538;32;33056;-60
2022/07/23 00:47:46;;;;;;;8.90;4.87;;;;;;;29.56;34.12;99467.37;4457217;32;33764;-60
2022/07/23 00:50:14;;;;;;;6.55;4.68;;;;;;;29.54;34.26;99463.22;4451321;32;33492;-60
2022/07/23 00:52:42;;;;;;;8.77;4.97;;;;;;;29.51;34.37;99469.22;4458715;32;34107;-60
2022/07/23 00:55:10;;;;;;;9.75;4.82;;;;;;;29.37;34.79;99461.19;4462158;32;34446;-61
2022/07/23 00:57:39;;;;;;;7.87;5.22;;;;;;;29.35;34.62;99462.53;4464004;32;34315;-62
2022/07/23 01:00:11;;;;;;;7.85;4.60;;;;;;;29.37;34.69;99455.69;4460977;32;34989;-61
2022/07/23 01:02:40;;;;;;;9.32;4.82;;;;;;;29.38;34.72;99460.13;4466511;32;32748;-60
2022/07/23 01:05:09;;;;;;;8.55;4.90;;;;;;;29.34;34.58;99469.13;4465218;32;34708;-60
2022/07/23 01:07:37;;;;;;;9.63;4.62;;;;;;;29.41;34.61;99456.88;4455017;32;34425;-62
2022/07/23 01:10:30;;;;;;;8.40;5.18;;;;;;;29.34;34.58;99456.19;4464358;32;33612;-62
2022/07/23 01:12:54;;;;;;;9.00;4.82;;;;;;;29.27;34.53;99461.00;4461380;32;33863;-61
2022/07/23 01:15:22;;;;;;;6.95;4.80;;;;;;;29.30;34.96;99466.00;4454646;32;33914;-62
2022/07/23 01:17:50;;;;;;;9.98;5.00;;;;;;;29.26;34.90;99453.81;4467546;32;33360;-62
2022/07/23 01:20:19;;;;;;;7.97;5.05;;;;;;;29.06;35.11;99456.16;4463920;32;33758;-62
2022/07/23 01:22:47;;;;;;;7.75;5.10;;;;;;;29.16;34.93;99461.88;4455199;32;34966;-61
2022/07/23 01:25:15;;;;;;;6.93;4.57;;;;;;;29.19;35.01;99453.13;4451992;32;34900;-62
2022/07/23 01:27:44;;;;;;;6.43;4.32;;;;;;;29.16;35.16;99451.69;4468413;32;35251;-61
2022/07/23 01:30:12;;;;;;;6.75;4.50;;;;;;;29.20;34.91;99455.62;4467698;32;33703;-61
2022/07/23 01:32:40;;;;;;;7.03;4.87;;;;;;;29.20;34.87;99454.78;4465425;32;33881;-62
2022/07/23 01:35:09;;;;;;;15.90;5.10;;;;;;;29.07;35.30;99460.56;4464061;32;32915;-62
2022/07/23 01:37:38;;;;;;;9.90;4.75;;;;;;;29.01;35.09;99460.44;4455930;32;33138;-62
2022/07/23 01:40:06;;;;;;;9.45;5.15;;;;;;;29.01;34.95;99449.41;4465049;32;32655;-61
2022/07/23 01:42:34;;;;;;;7.53;4.47;;;;;;;28.86;35.19;99451.84;4468626;32;34174;-61
2022/07/23 01:45:04;;;;;;;10.20;4.72;;;;;;;29.03;34.79;99446.44;4455611;32;34867;-62
2022/07/23 01:47:32;;;;;;;8.57;5.45;;;;;;;29.03;34.61;99457.47;4465237;32;33160;-60
2022/07/23 01:50:00;;;;;;;8.45;5.00;;;;;;;28.96;35.24;99463.06;4461565;32;35072;-62
2022/07/23 01:52:28;;;;;;;8.18;4.22;;;;;;;28.88;35.42;99459.84;4467073;32;32779;-61
2022/07/23 01:54:55;;;;;;;12.37;5.43;;;;;;;28.96;35.38;99456.72;4467651;32;34575;-61
2022/07/23 01:57:23;;;;;;;8.88;5.40;;;;;;;28.87;35.61;99449.91;4464202;32;34593;-60
2022/07/23 01:59:50;;;;;;;9.93;4.78;;;;;;;28.85;35.48;99452.87;4455945;32;33778;-61
2022/07/23 02:02:18;;;;;;;8.05;4.60;;;;;;;28.77;35.52;99454.09;4465581;32;35092;-61
2022/07/23 02:04:46;;;;;;;10.20;5.37;;;;;;;28.61;35.74;99449.31;4464114;32;34884;-60
2022/07/23 02:07:15;;;;;;;7.30;5.18;;;;;;;28.70;35.46;99445.13;4453005;32;32150;-60
2022/07/23 02:09:43;;;;;;;10.10;4.95;;;;;;;28.81;35.33;99442.63;4466775;32;34029;-60
2022/07/23 02:12:12;;;;;;;8.07;5.07;;;;;;;28.82;35.30;99453.38;4465844;32;34856;-60
2022/07/23 02:14:40;;;;;;;9.10;5.30;;;;;;;28.76;35.40;99448.81;4469230;32;34054;-61
2022/07/23 02:17:08;;;;;;;8.40;4.85;;;;;;;28.69;35.45;99462.72;4464373;32;32430;-61
2022/07/23 02:19:36;;;;;;;8.75;4.85;;;;;;;28.70;35.45;99458.91;4465124;32;34111;-62
2022/07/23 02:22:03;;;;;;;7.35;4.93;;;;;;;28.64;35.52;99448.84;4467716;32;33549;-61
2022/07/23 02:24:31;;;;;;;8.63;5.12;;;;;;;28.67;35.69;99458.53;4465920;32;34044;-61
2022/07/23 02:26:59;;;;;;;7.45;4.53;;;;;;;28.52;35.99;99456.25;4461541;32;34137;-60
2022/07/23 02:29:27;;;;;;;9.18;5.28;;;;;;;28.52;35.89;99462.59;4468151;32;33758;-60
2022/07/23 02:31:54;;;;;;;9.75;5.05;;;;;;;28.40;36.15;99449.91;4464803;32;32376;-61
2022/07/23 02:34:22;;;;;;;6.95;4.78;;;;;;;28.43;36.13;99455.78;4467446;32;33904;-60
2022/07/23 02:36:50;;;;;;;9.25;5.47;;;;;;;28.32;36.32;99456.59;4466523;32;34372;-62
2022/07/23 02:39:17;;;;;;;9.25;5.57;;;;;;;28.45;36.07;99464.66;4460549;32;32572;-61
2022/07/23 02:41:45;;;;;;;12.57;5.32;;;;;;;28.48;35.81;99469.66;4461689;32;35315;-61
2022/07/23 02:44:13;;;;;;;9.63;5.30;;;;;;;28.37;35.91;99464.94;4460618;32;33832;-61
2022/07/23 02:46:41;;;;;;;9.18;4.90;;;;;;;28.34;35.80;99458.00;4464244;32;33584;-61
2022/07/23 02:49:09;;;;;;;7.45;4.78;;;;;;;28.28;35.92;99467.22;4466144;32;33659;-61
2022/07/23 02:51:37;;;;;;;6.82;4.80;;;;;;;28.25;35.88;99456.69;4447438;32;33639;-62
2022/07/23 02:54:04;;;;;;;6.70;5.07;;;;;;;28.32;35.86;99462.09;4454327;32;33450;-62
2022/07/23 02:56:32;;;;;;;10.13;5.20;;;;;;;28.20;36.15;99461.22;4461137;32;33936;-62
2022/07/23 02:59:00;;;;;;;9.98;4.95;;;;;;;28.17;36.34;99459.78;4459860;32;33696;-61
2022/07/23 03:01:28;;;;;;;8.32;5.10;;;;;;;28.16;36.39;99457.28;4454918;32;34692;-61
2022/07/23 03:03:55;;;;;;;9.15;4.90;;;;;;;28.14;36.37;99456.66;4463927;32;34031;-62
2022/07/23 03:06:23;;;;;;;8.25;4.90;;;;;;;28.10;36.30;99453.56;4467590;32;33686;-61
2022/07/23 03:08:51;;;;;;;7.45;5.05;;;;;;;28.04;36.29;99454.50;4468018;32;34677;-61
2022/07/23 03:11:19;;;;;;;7.68;5.10;;;;;;;27.97;36.17;99454.59;4464815;32;33816;-62
2022/07/23 03:13:48;;;;;;;8.77;5.37;;;;;;;27.79;36.54;99449.16;4466463;32;33700;-60
2022/07/23 03:16:16;;;;;;;7.95;5.18;;;;;;;27.73;36.41;99447.31;4467850;32;33107;-60
2022/07/23 03:18:43;;;;;;;8.93;5.50;;;;;;;27.78;36.26;99444.75;4466839;32;33827;-61
2022/07/23 03:21:12;;;;;;;7.95;5.25;;;;;;;27.63;36.38;99445.94;4459778;32;34928;-60
2022/07/23 03:23:40;;;;;;;8.38;5.30;;;;;;;27.59;36.72;99447.50;4466029;32;33947;-60
2022/07/23 03:26:08;;;;;;;7.53;5.25;;;;;;;27.79;36.33;99447.25;4461121;32;33853;-60
2022/07/23 03:28:35;;;;;;;8.07;5.75;;;;;;;27.83;36.52;99453.97;4462578;32;35127;-61
2022/07/23 03:31:05;;;;;;;8.55;5.20;;;;;;;27.87;36.45;99446.09;4465217;32;33866;-61
2022/07/23 03:33:33;;;;;;;8.68;5.82;;;;;;;27.84;36.53;99444.63;4461266;32;33685;-61
2022/07/23 03:36:01;;;;;;;8.38;5.35;;;;;;;27.91;36.14;99441.78;4465040;32;33493;-61
2022/07/23 03:38:31;;;;;;;10.20;4.93;;;;;;;27.94;36.00;99451.47;4453025;32;33067;-60
2022/07/23 03:40:59;;;;;;;10.05;6.00;;;;;;;28.04;35.88;99443.50;4459154;32;32680;-61
2022/07/23 03:43:29;;;;;;;7.70;4.95;;;;;;;28.03;36.05;99458.31;4461708;32;33147;-60
2022/07/23 03:45:56;;;;;;;11.12;5.18;;;;;;;28.10;36.18;99461.81;4467502;32;32898;-61
2022/07/23 03:48:24;;;;;;;8.20;5.50;;;;;;;28.10;36.15;99456.31;4465406;32;34626;-60
2022/07/23 03:50:52;;;;;;;13.65;5.18;;;;;;;28.13;36.00;99461.34;4464739;32;34853;-61
2022/07/23 03:53:19;;;;;;;10.13;5.15;;;;;;;28.20;36.17;99458.47;4463616;32;34268;-61
2022/07/23 03:55:47;;;;;;;8.40;5.30;;;;;;;28.21;36.48;99460.97;4466188;32;33527;-61
2022/07/23 03:58:15;;;;;;;9.68;5.22;;;;;;;28.20;36.16;99456.56;4460617;32;35145;-60
2022/07/23 04:00:43;;;;;;;6.75;5.05;;;;;;;28.19;36.23;99468.66;4463077;32;33870;-61
2022/07/23 04:03:11;;;;;;;8.27;5.47;;;;;;;28.43;35.76;99468.69;4460785;32;33764;-61
2022/07/23 04:05:39;;;;;;;8.98;5.47;;;;;;;28.47;35.45;99464.38;4466773;32;33683;-61
2022/07/23 04:08:07;;;;;;;8.55;5.40;;;;;;;28.51;35.24;99462.84;4466696;32;33796;-61
2022/07/23 04:10:37;;;;;;;8.15;5.57;;;;;;;28.64;35.13;99461.78;4467416;32;33923;-63
2022/07/23 04:13:05;;;;;;;7.82;5.15;;;;;;;28.72;34.89;99461.41;4465069;32;33722;-60
2022/07/23 04:15:33;;;;;;;7.37;5.07;;;;;;;28.70;34.92;99469.06;4463577;32;33309;-61
2022/07/23 04:18:00;;;;;;;7.15;5.43;;;;;;;28.69;34.75;99467.41;4462359;32;33667;-61
2022/07/23 04:20:28;;;;;;;8.55;5.47;;;;;;;28.76;34.57;99473.59;4452490;32;32874;-60
2022/07/23 04:22:56;;;;;;;9.02;5.53;;;;;;;28.78;34.60;99463.19;4461457;32;32644;-61
2022/07/23 04:25:24;;;;;;;10.15;5.20;;;;;;;28.83;34.89;99468.84;4453488;32;33299;-62
2022/07/23 04:27:52;;;;;;;7.85;4.70;;;;;;;28.82;34.99;99463.56;4457861;32;32678;-62
2022/07/23 04:30:20;;;;;;;7.65;5.68;;;;;;;28.89;35.12;99467.87;4467472;32;33941;-61
2022/07/23 04:32:47;;;;;;;8.65;5.35;;;;;;;28.94;35.06;99473.47;4448097;32;33355;-60
2022/07/23 04:35:15;;;;;;;7.05;5.47;;;;;;;29.06;34.66;99462.50;4462593;32;34514;-61
2022/07/23 04:37:44;;;;;;;8.30;4.97;;;;;;;29.07;34.68;99475.19;4465300;32;33849;-61
2022/07/23 04:40:13;;;;;;;10.50;5.28;;;;;;;29.06;34.81;99475.44;4466528;32;34515;-61
2022/07/23 04:42:40;;;;;;;6.75;4.62;;;;;;;29.05;34.67;99474.56;4467646;32;32757;-61
2022/07/23 04:45:08;;;;;;;6.78;5.03;;;;;;;29.04;34.74;99477.59;4457325;32;33599;-61
2022/07/23 04:47:40;;;;;;;9.52;5.20;;;;;;;29.05;34.94;99477.31;4469707;32;33991;-61
2022/07/23 04:50:09;;;;;;;8.98;5.68;;;;;;;29.04;35.32;99472.91;4462757;32;32694;-64
2022/07/23 04:52:37;;;;;;;7.85;5.40;;;;;;;29.08;35.53;99481.53;4462329;32;33928;-61
2022/07/23 04:55:05;;;;;;;10.80;5.43;;;;;;;29.14;35.61;99480.56;4468392;32;34133;-60
2022/07/23 04:57:33;;;;;;;8.93;5.95;;;;;;;29.19;35.62;99475.16;4469033;32;35040;-61
2022/07/23 05:00:03;;;;;;;10.73;5.50;;;;;;;29.18;35.61;99476.22;4467395;32;34108;-60
2022/07/23 05:02:31;;;;;;;10.57;6.20;;;;;;;29.35;35.39;99477.16;4464289;32;33852;-60
2022/07/23 05:04:58;;;;;;;7.65;5.35;;;;;;;29.38;35.01;99482.19;4464302;32;34267;-61
2022/07/23 05:07:26;;;;;;;7.10;4.70;;;;;;;29.44;35.05;99474.87;4454954;32;34683;-61
2022/07/23 05:09:55;;;;;;;10.98;5.15;;;;;;;29.49;34.80;99474.94;4461792;32;34474;-62
2022/07/23 05:12:22;;;;;;;8.27;5.72;;;;;;;29.46;35.00;99473.50;4463128;32;32631;-60
2022/07/23 05:14:50;;;;;;;7.82;5.03;;;;;;;29.56;35.12;99472.03;4460850;32;34391;-61
2022/07/23 05:17:18;;;;;;;8.98;5.65;;;;;;;29.69;35.03;99469.03;4462397;32;33699;-61
2022/07/23 05:19:45;;;;;;;8.57;5.30;;;;;;;29.77;35.00;99467.81;4468592;32;34108;-60
2022/07/23 05:22:13;;;;;;;9.75;5.45;;;;;;;29.86;35.20;99469.91;4467851;32;33913;-60
2022/07/23 05:24:41;;;;;;;8.10;5.50;;;;;;;29.97;34.90;99470.94;4468299;32;33398;-61
2022/07/23 05:27:08;;;;;;;9.95;5.82;;;;;;;30.17;33.98;99471.28;4467077;32;33585;-62
2022/07/23 05:29:36;;;;;;;11.35;5.32;;;;;;;30.24;33.51;99476.69;4468392;32;34247;-60
2022/07/23 05:32:04;;;;;;;7.60;5.05;;;;;;;30.30;33.99;99472.09;4453398;32;33804;-60
2022/07/23 05:34:32;;;;;;;7.57;5.10;;;;;;;30.48;33.67;99471.84;4457882;32;33792;-62
2022/07/23 05:37:00;;;;;;;9.27;5.07;;;;;;;30.41;34.57;99476.69;4465302;32;33849;-61
2022/07/23 05:39:28;;;;;;;7.37;4.87;;;;;;;30.61;33.87;99471.50;4464244;32;32913;-60
2022/07/23 05:41:56;;;;;;;9.45;5.20;;;;;;;30.78;33.73;99474.25;4467629;32;32765;-60
2022/07/23 05:44:24;;;;;;;8.48;5.70;;;;;;;30.89;33.98;99475.25;4448978;32;32956;-61
2022/07/23 05:46:52;;;;;;;7.97;5.43;;;;;;;30.93;34.47;99476.41;4459526;32;33843;-60
2022/07/23 05:49:20;;;;;;;7.37;5.30;;;;;;;31.00;33.81;99467.94;4463929;32;32836;-59
2022/07/23 05:51:49;;;;;;;7.30;5.12;;;;;;;30.65;34.94;99477.34;4465057;32;32759;-61
2022/07/23 05:54:19;;;;;;;7.35;5.05;;;;;;;30.99;35.34;99474.56;4467708;32;34080;-59
2022/07/23 05:56:46;;;;;;;8.30;5.28;;;;;;;30.98;35.61;99470.09;4460504;32;33912;-60
2022/07/23 05:59:14;;;;;;;10.23;6.00;;;;;;;31.13;34.49;99473.09;4466452;32;33981;-61
2022/07/23 06:01:42;;;;;;;11.85;5.15;;;;;;;31.27;33.88;99477.16;4467479;32;33766;-60
2022/07/23 06:04:10;;;;;;;9.27;5.50;;;;;;;31.22;33.07;99471.56;4457947;32;34417;-60
2022/07/23 06:06:38;;;;;;;9.07;5.32;;;;;;;31.27;33.09;99466.09;4467993;32;32735;-60
2022/07/23 06:09:06;;;;;;;8.45;5.25;;;;;;;31.34;34.08;99468.69;4466130;32;35712;-61
2022/07/23 06:11:34;;;;;;;8.75;5.53;;;;;;;31.60;34.17;99472.59;4453411;32;33505;-60
2022/07/23 06:14:02;;;;;;;10.57;5.68;;;;;;;31.53;33.11;99464.50;4467216;32;33345;-60
2022/07/23 06:16:32;;;;;;;8.32;5.32;;;;;;;31.61;33.16;99463.19;4467468;32;34677;-60
2022/07/23 06:18:59;;;;;;;8.20;5.62;;;;;;;31.61;32.00;99465.13;4457171;32;32764;-61
2022/07/23 06:21:29;;;;;;;12.13;5.37;;;;;;;31.39;32.34;99456.84;4453013;32;35723;-60
2022/07/23 06:24:14;;;;;;;16.02;6.47;;;;;;;31.43;32.10;99455.25;4464544;32;33456;-61
2022/07/23 06:26:42;;;;;;;12.27;5.97;;;;;;;31.60;32.48;99452.41;4457933;32;34664;-60
2022/07/23 06:29:10;;;;;;;8.57;4.78;;;;;;;31.67;31.84;99450.28;4461475;32;32572;-60
2022/07/23 06:31:37;;;;;;;10.10;4.85;;;;;;;31.82;31.09;99452.37;4454752;32;33807;-60
2022/07/23 06:34:05;;;;;;;12.13;5.57;;;;;;;31.74;31.26;99461.97;4465305;32;32207;-60
2022/07/23 06:36:35;;;;;;;9.32;5.55;;;;;;;32.01;31.24;99448.16;4462160;32;33909;-60
2022/07/23 06:39:03;;;;;;;7.10;4.78;;;;;;;32.16;31.32;99462.13;4467731;32;33947;-61
2022/07/23 06:41:32;;;;;;;13.45;5.10;;;;;;;32.33;31.09;99455.59;4467267;32;34690;-60
2022/07/23 06:44:00;;;;;;;8.00;5.30;;;;;;;32.34;30.81;99449.00;4466728;32;34275;-61
2022/07/23 06:46:29;;;;;;;9.57;5.10;;;;;;;32.59;30.71;99451.16;4464400;32;35102;-59
2022/07/23 06:48:57;;;;;;;8.25;5.10;;;;;;;32.32;30.44;99462.25;4462467;32;35228;-61
2022/07/23 06:51:25;;;;;;;11.52;5.65;;;;;;;32.57;30.07;99462.50;4461462;32;33534;-61
2022/07/23 06:53:53;;;;;;;8.05;4.72;;;;;;;32.76;29.92;99459.28;4455241;32;32026;-60
2022/07/23 06:56:20;;;;;;;9.77;5.25;;;;;;;32.57;29.47;99456.94;4466908;32;33949;-60
2022/07/23 06:58:48;;;;;;;8.50;4.60;;;;;;;32.82;30.25;99461.00;4467496;32;34944;-62
2022/07/23 07:01:16;;;;;;;9.55;5.00;;;;;;;32.93;29.07;99454.41;4461232;32;34842;-62
2022/07/23 07:03:43;;;;;;;8.65;4.80;;;;;;;32.97;29.49;99458.34;4462525;32;32008;-63
2022/07/23 07:06:11;;;;;;;7.95;4.55;;;;;;;33.19;29.47;99444.28;4454492;32;34741;-60
2022/07/23 07:08:39;;;;;;;11.55;5.90;;;;;;;33.19;28.07;99449.00;4458110;32;35025;-60
2022/07/23 07:11:08;;;;;;;9.70;5.05;;;;;;;32.99;29.03;99442.28;4465151;32;34085;-62
2022/07/23 07:13:36;;;;;;;8.15;4.97;;;;;;;33.40;29.04;99446.06;4467870;32;33412;-61
2022/07/23 07:16:04;;;;;;;12.68;5.47;;;;;;;33.38;28.69;99436.34;4467003;32;34757;-61
2022/07/23 07:18:32;;;;;;;8.75;4.78;;;;;;;33.52;28.66;99443.09;4460102;32;33899;-61
2022/07/23 07:20:59;;;;;;;8.25;4.72;;;;;;;33.33;28.50;99444.66;4462248;32;33523;-62
2022/07/23 07:23:27;;;;;;;9.85;5.65;;;;;;;33.21;28.82;99441.28;4456806;32;33534;-60
2022/07/23 07:25:55;;;;;;;8.38;5.40;;;;;;;33.25;28.63;99436.84;4456297;32;33471;-60
2022/07/23 07:28:22;;;;;;;8.02;5.28;;;;;;;33.13;28.70;99429.59;4454766;32;35025;-60
2022/07/23 07:30:50;;;;;;;9.25;5.35;;;;;;;33.23;28.73;99439.91;4445217;32;202522;-61
2022/07/23 07:33:19;;;;;;;8.75;4.90;;;;;;;33.75;28.31;99438.13;4455853;32;33543;-60
2022/07/23 07:35:46;;;;;;;13.62;5.75;;;;;;;33.96;27.12;99430.66;4466949;32;34134;-62
2022/07/23 07:38:14;;;;;;;8.45;4.87;;;;;;;33.78;27.99;99434.81;4467316;32;33937;-59
2022/07/23 07:40:42;;;;;;;9.32;4.85;;;;;;;34.05;27.91;99427.09;4464393;32;33530;-59
2022/07/23 07:43:09;;;;;;;9.77;4.87;;;;;;;34.21;27.16;99430.69;4464907;32;34641;-61
2022/07/23 07:45:37;;;;;;;7.40;5.03;;;;;;;34.51;26.68;99420.66;4465093;32;33360;-61
2022/07/23 07:48:05;;;;;;;11.63;4.85;;;;;;;34.42;27.33;99428.75;4447513;32;32697;-60
2022/07/23 07:50:32;;;;;;;7.78;4.37;;;;;;;34.17;26.99;99432.38;4460734;32;33949;-60
2022/07/23 07:53:01;;;;;;;8.15;4.90;;;;;;;34.02;27.11;99429.59;4463790;32;34165;-59
2022/07/23 07:55:28;;;;;;;8.20;4.18;;;;;;;34.34;26.40;99431.25;4465920;32;33993;-60
2022/07/23 07:57:56;;;;;;;9.57;3.65;;;;;;;34.50;25.13;99422.63;4465113;32;33913;-61
2022/07/23 08:00:24;;;;;;;10.13;4.60;;;;;;;34.37;25.13;99425.97;4461829;32;34163;-61
2022/07/23 08:02:53;;;;;;;13.85;4.55;;;;;;;34.91;25.63;99421.75;4462175;32;33444;-62
2022/07/23 08:05:25;;;;;;;7.60;3.80;;;;;;;34.91;25.25;99422.56;4446418;32;33237;-61
2022/07/23 08:07:56;;;;;;;13.27;4.28;;;;;;;35.13;24.59;99424.19;4432841;32;32318;-61
2022/07/23 08:10:25;;;;;;;7.03;4.18;;;;;;;35.21;25.33;99426.38;4450890;32;35101;-61
2022/07/23 08:12:56;;;;;;;7.05;3.67;;;;;;;35.35;24.50;99427.44;4449458;32;32777;-62
2022/07/23 08:15:26;;;;;;;7.07;3.90;;;;;;;35.02;24.95;99428.91;4449705;32;35019;-62
2022/07/23 08:17:55;;;;;;;6.75;4.20;;;;;;;35.47;24.33;99424.28;4448634;32;35653;-62
2022/07/23 08:20:23;;;;;;;10.10;4.25;;;;;;;35.42;24.16;99430.72;4449110;32;32870;-61
2022/07/23 08:22:56;;;;;;;8.18;4.47;;;;;;;35.73;24.04;99426.94;4449958;32;33401;-62
2022/07/23 08:25:26;;;;;;;7.90;3.90;;;;;;;35.33;23.33;99423.28;4450446;32;35055;-61
2022/07/23 08:27:55;;;;;;;8.35;4.28;;;;;;;35.53;23.51;99427.91;4451026;32;33293;-61
2022/07/23 08:30:22;;;;;;;5.93;3.72;;;;;;;35.84;23.37;99423.00;4450164;32;34907;-61
2022/07/23 08:32:55;;;;;;;8.50;3.87;;;;;;;35.86;23.36;99432.72;4450317;32;32923;-61
2022/07/23 08:35:27;;;;;;;5.55;3.97;;;;;;;35.79;23.72;99426.62;4450163;32;33970;-62
2022/07/23 08:37:55;;;;;;;7.55;4.22;;;;;;;35.91;23.17;99431.84;4453835;32;33719;-60
2022/07/23 08:40:25;;;;;;;8.80;4.47;;;;;;;36.10;23.73;99429.22;4451200;32;33887;-62
2022/07/23 08:42:53;;;;;;;8.90;4.00;;;;;;;36.08;24.11;99431.47;4449802;32;32408;-61
2022/07/23 08:45:22;;;;;;;8.48;4.25;;;;;;;36.15;23.16;99432.81;4451497;32;32402;-60
2022/07/23 08:47:55;;;;;;;8.02;4.62;;;;;;;36.45;22.77;99424.47;4434585;32;32936;-60
2022/07/23 08:50:24;;;;;;;9.67;4.77;;;;;;;36.27;23.32;99426.84;4449176;32;35119;-60
2022/07/23 08:52:53;;;;;;;10.50;4.25;;;;;;;35.91;23.35;99427.09;4452296;32;34620;-59
2022/07/23 08:55:22;;;;;;;11.25;4.90;;;;;;;36.63;22.86;99426.56;4455097;32;34641;-61
2022/07/23 08:57:51;;;;;;;12.25;5.32;;;;;;;36.55;22.96;99422.44;4448604;32;32490;-61
2022/07/23 09:00:21;;;;;;;8.15;4.43;;;;;;;36.13;22.64;99421.13;4449100;32;33724;-62
2022/07/23 09:02:50;;;;;;;12.10;4.62;;;;;;;36.20;23.46;99420.78;4451670;32;34218;-60
2022/07/23 09:05:19;;;;;;;8.82;4.22;;;;;;;36.32;23.42;99418.44;4454902;32;34049;-62
2022/07/23 09:08:10;;;;;;;8.65;4.05;;;;;;;36.49;22.97;99415.22;4449863;32;33740;-62
2022/07/23 09:10:47;;;;;;;6.40;4.12;;;;;;;36.57;23.06;99417.41;4449272;32;34542;-61
2022/07/23 09:13:45;;;;;;;7.65;4.28;;;;;;;36.05;23.08;99420.91;4449232;32;34249;-62
2022/07/23 09:16:14;;;;;;;7.10;4.50;;;;;;;36.78;22.77;99418.00;4448693;32;32149;-60
2022/07/23 09:18:46;;;;;;;6.90;3.70;;;;;;;36.75;22.50;99421.37;4456325;32;35213;-61
2022/07/23 09:21:21;;;;;;;9.10;4.72;;;;;;;36.84;22.59;99419.63;4467157;32;33782;-61
2022/07/23 09:23:57;;;;;;;7.75;4.18;;;;;;;36.33;22.37;99414.53;4464129;32;33513;-63
2022/07/23 09:26:31;;;;;;;7.32;4.05;;;;;;;36.54;22.37;99414.37;4460369;32;35058;-61
2022/07/23 09:29:09;;;;;;;6.57;4.12;;;;;;;36.70;22.58;99415.06;4447600;32;34065;-60
2022/07/23 09:32:00;;;;;;;8.30;3.80;;;;;;;36.79;22.43;99404.88;4448101;32;33603;-63
2022/07/23 09:34:35;;;;;;;6.82;4.10;;;;;;;36.84;22.43;99414.03;4449405;32;32831;-61
2022/07/23 09:37:19;;;;;;;8.80;4.32;;;;;;;37.30;21.82;99413.53;4447962;32;32482;-63
2022/07/23 09:39:48;;;;;;;7.87;4.20;;;;;;;37.34;22.06;99410.09;4448588;32;33971;-60
2022/07/23 09:42:23;;;;;;;12.45;4.30;;;;;;;37.46;21.31;99416.09;4443176;32;32525;-60
2022/07/23 09:44:53;;;;;;;7.15;4.22;;;;;;;37.53;21.68;99411.00;4449184;32;33645;-60
2022/07/23 09:47:22;;;;;;;7.32;4.62;;;;;;;38.06;21.03;99396.78;4434702;32;33237;-61
2022/07/23 09:50:00;;;;;;;6.93;4.18;;;;;;;38.37;20.52;99402.72;4433582;32;32366;-60
2022/07/23 09:52:30;;;;;;;6.78;4.28;;;;;;;38.33;20.50;99404.44;4449369;32;35305;-61
2022/07/23 09:55:04;;;;;;;6.55;4.25;;;;;;;38.20;20.54;99397.69;4448059;32;34419;-61
2022/07/23 09:57:32;;;;;;;5.72;3.95;;;;;;;38.50;20.01;99403.88;4448709;32;32858;-61
2022/07/23 10:00:04;;;;;;;10.45;4.28;;;;;;;38.36;20.27;99394.59;4449265;32;35942;-60
2022/07/23 10:02:33;;;;;;;6.30;4.35;;;;;;;38.22;20.42;99397.34;4450098;32;31242;-61
2022/07/23 10:05:03;;;;;;;9.35;4.32;;;;;;;38.83;19.39;99389.84;4450940;32;32989;-61
2022/07/23 10:07:33;;;;;;;5.43;3.80;;;;;;;38.11;20.01;99393.09;4449980;32;33342;-62
2022/07/23 10:10:06;;;;;;;7.62;3.80;;;;;;;38.41;19.17;99392.56;4450826;32;35251;-62
2022/07/23 10:12:45;;;;;;;7.57;4.05;;;;;;;38.04;19.58;99384.25;4456828;32;33598;-61
2022/07/23 10:15:12;;;;;;;7.68;4.00;;;;;;;37.84;20.24;99382.59;4456324;32;33353;-61
2022/07/23 10:17:40;;;;;;;7.07;3.92;;;;;;;38.38;19.19;99387.59;4461852;32;35464;-61
2022/07/23 10:20:08;;;;;;;8.05;4.20;;;;;;;38.74;18.84;99381.31;4440311;32;32464;-61
2022/07/23 10:22:44;;;;;;;6.07;3.55;;;;;;;38.74;19.35;99370.13;4452235;32;34965;-61
2022/07/23 10:25:20;;;;;;;8.50;3.97;;;;;;;37.86;19.72;99377.56;4447166;32;34695;-61
2022/07/23 10:28:06;;;;;;;5.90;3.20;;;;;;;38.34;19.42;99372.56;4461138;32;33798;-61
2022/07/23 10:30:42;;;;;;;7.25;4.05;;;;;;;38.39;18.24;99377.22;4463853;32;34008;-61
2022/07/23 10:33:32;;;;;;;7.37;3.47;;;;;;;38.59;18.84;99370.41;4453585;32;35077;-61
2022/07/23 10:36:06;;;;;;;8.93;3.80;;;;;;;38.82;18.59;99375.00;4436121;32;32431;-62
2022/07/23 10:39:07;;;;;;;10.18;4.82;;;;;;;38.97;19.01;99368.28;4449086;32;33743;-62
2022/07/23 10:41:38;;;;;;;6.32;3.97;;;;;;;39.17;18.37;99367.03;4441280;32;33937;-61
2022/07/23 10:44:32;;;;;;;8.73;4.15;;;;;;;39.45;18.48;99359.41;4455073;32;33511;-61
2022/07/23 10:49:35;;;;;;;7.70;4.25;;;;;;;39.90;18.11;99353.87;4449799;32;34462;-61
2022/07/23 10:52:15;;;;;;;8.48;4.25;;;;;;;40.06;17.57;99348.69;4447868;32;33664;-61
2022/07/23 10:54:46;;;;;;;7.97;4.28;;;;;;;39.46;18.38;99349.88;4456740;32;33877;-62
2022/07/23 10:57:14;;;;;;;6.12;4.05;;;;;;;39.87;17.97;99351.69;4464686;32;33207;-62
2022/07/23 11:00:00;;;;;;;6.75;4.12;;;;;;;40.17;17.80;99354.91;4465464;32;35110;-59
2022/07/23 11:02:30;;;;;;;7.18;4.37;;;;;;;39.77;17.55;99335.16;4462317;32;33987;-61
2022/07/23 11:05:24;;;;;;;7.53;4.28;;;;;;;39.66;17.85;99336.53;4454053;32;34723;-60
2022/07/23 11:08:04;;;;;;;6.78;4.45;;;;;;;39.03;18.65;99339.06;4444613;32;32651;-62
2022/07/23 11:10:37;;;;;;;7.78;3.90;;;;;;;39.18;17.95;99331.47;4450411;32;34816;-60
2022/07/23 11:13:23;;;;;;;9.90;4.28;;;;;;;39.00;18.03;99325.69;4445520;32;33509;-61
2022/07/23 11:16:00;;;;;;;7.50;4.03;;;;;;;39.79;18.02;99327.28;4446311;32;32759;-62
2022/07/23 11:18:43;;;;;;;7.28;4.22;;;;;;;39.82;17.45;99323.84;4452804;32;33510;-62
2022/07/23 11:21:23;;;;;;;7.55;4.32;;;;;;;39.25;18.50;99324.28;4448078;32;34387;-62
2022/07/23 11:23:57;;;;;;;9.15;4.25;;;;;;;39.18;17.98;99320.28;4447036;32;33793;-61
2022/07/23 11:26:41;;;;;;;7.43;4.22;;;;;;;39.15;18.26;99318.94;4456016;32;33804;-61
2022/07/23 11:29:35;;;;;;;6.62;4.00;;;;;;;38.85;18.32;99317.66;4447251;32;34634;-62
2022/07/23 11:32:03;;;;;;;7.30;4.53;;;;;;;39.33;18.31;99308.78;4447128;32;34193;-62
2022/07/23 11:34:43;;;;;;;6.97;4.07;;;;;;;38.60;18.50;99308.63;4446444;32;32803;-63
2022/07/23 11:37:11;;;;;;;5.65;3.80;;;;;;;39.24;18.58;99310.62;4434777;32;31951;-61
2022/07/23 11:39:39;;;;;;;7.07;4.25;;;;;;;39.58;17.73;99299.75;4447336;32;34366;-61
2022/07/23 11:42:07;;;;;;;9.32;3.92;;;;;;;39.94;17.74;99300.81;4446952;32;34034;-62
2022/07/23 11:44:39;;;;;;;7.00;4.10;;;;;;;39.93;17.73;99305.59;4450150;32;34253;-60
2022/07/23 11:47:09;;;;;;;6.75;3.97;;;;;;;39.82;18.11;99302.25;4431777;32;33653;-62